Detalii statie AGROKAISER STANESTI [0000198D]

Toti senzorii

Date Temperatura solului [C]Precipitatii [mm]Voltaj baterie [mV]Leaf Wetness [Min]HC Air temperature [C]HC Relative humidity [%]Punctul de roua [C]
medieminmaxsumaultimatimpmedieminmaxmediemediemin
2019-10-19 23:00:00 0 6650 14.05 13.79 14.48 100 14 13.7
2019-10-20 00:00:00 0 6640 13.33 12.93 13.8 100 13.2 12.9
2019-10-20 01:00:00 0 6650 13.09 12.87 13.54 100 13 12.8
2019-10-20 02:00:00 0 6630 13.28 12.99 13.61 100 13.2 12.9
2019-10-20 03:00:00 0 6630 12.48 11.99 13.29 100 12.4 11.9
2019-10-20 04:00:00 0 6640 10.77 9.87 11.99 100 10.7 9.8
2019-10-20 05:00:00 0 6640 9.68 9.44 9.98 100 9.6 9.4
2019-10-20 06:00:00 0 6620 9.15 8.75 9.37 100 9.1 8.7
2019-10-20 07:00:00 0 6630 8.57 8.2 8.85 100 8.5 8.2
2019-10-20 08:00:00 0 6718 9.4 8.26 10.79 100 9.3 8.2
2019-10-20 09:00:00 0 7148 12.88 11.17 15.41 100 12.8 11.1
2019-10-20 10:00:00 0 7274 17.13 14.98 19.54 99.76 17 14.9
2019-10-20 11:00:00 0 7216 19.5 18.76 20.39 96.68 18.8 18.4
2019-10-20 12:00:00 0 7148 20.69 19.62 21.62 92.69 19.3 19.1
2019-10-20 13:00:00 0 7246 22.24 21.57 22.9 85.31 19.5 19.1
2019-10-20 14:00:00 0 7128 23.56 22.89 24.5 78.33 19.4 19.1
2019-10-20 15:00:00 0 7088 24.37 23.85 25.14 73.52 19.1 18.9
2019-10-20 16:00:00 0 6922 24.24 23.72 24.81 71.32 18.5 17.9
2019-10-20 17:00:00 0 6766 23.3 22.33 23.78 72.33 17.8 17.6
2019-10-20 18:00:00 0 6688 20.59 19.17 22.03 81.88 17.2 16.3
2019-10-20 19:00:00 0 6678 18.75 18.25 19.21 87.7 16.5 15.8
2019-10-20 20:00:00 0 6688 17.31 16.99 18.02 96.02 16.5 15.9
2019-10-20 21:00:00 0 6668 16.67 16.05 17.28 99.89 16.5 16
2019-10-20 22:00:00 0 6660 15.66 15.1 16.16 100 15.6 15.1
2019-10-20 23:00:00 0 6650 14.45 13.83 15.21 100 14.4 13.8
2019-10-21 00:00:00 0 6660 13.75 13.39 14.13 100 13.7 13.3
2019-10-21 01:00:00 0 6650 13.58 13.14 14.04 100 13.5 13.1
2019-10-21 02:00:00 0 6640 12.71 12.08 13.76 100 12.6 12
2019-10-21 03:00:00 0 6630 11.88 11.65 12.22 100 11.8 11.6
2019-10-21 04:00:00 0 6640 10.82 10.29 11.47 100 10.7 10.2
2019-10-21 05:00:00 0 6640 10.19 9.79 11.19 100 10.1 9.7
2019-10-21 06:00:00 0 6630 10.06 9.94 10.17 100 10 9.9
2019-10-21 07:00:00 0 6630 10.29 9.72 10.99 100 10.2 9.7
2019-10-21 08:00:00 0 6708 10.33 9.5 11.26 100 10.2 9.5
2019-10-21 09:00:00 0 7070 12.69 10.7 14.62 100 12.6 10.7
2019-10-21 10:00:00 0 7274 16.07 15.11 17.17 100 16 15.1
2019-10-21 11:00:00 0 7274 18.63 17.5 19.56 94.56 17.6 17.3
2019-10-21 12:00:00 0 7274 21.22 19.82 22.29 87.23 18.8 18.4
2019-10-21 13:00:00 0 7274 22.73 21.96 23.56 81.24 19.2 18.9